Schedule Details

Flight Number: ASX104X
Departure: London-Stansted (EGSS) at 10:30Z
Arrival: Warszawa Chopina (EPWA) at 13:00Z

Weather Information
EGSS 251920Z AUTO 05009KT 9999 NCD M02/M07 Q1029
EPWA 251930Z 06005KT 030V090 9999 -SN BKN027 M09/M15 Q1029 NOSIG

Schedule Frequency

Route Map